Language selection

My Weather Profile Weather Topics  | 

Douglas Channel: Past 24 Hour Conditions

 

Nanakwa Shoal - 46181

02:00 AM PST 01 December 2022Buoy position: 53.83N 128.83W
Disclaimer

This table is a summary of hourly weather conditions for the past 24 hours.
Please note that these observations might not always be representative of weather conditions over their associated marine area.

Date / Time
(PST)
Wind(knots) Wave height(m) Wave period(s) Pressure(kPa) Air tempC) Water tempC)
01 December 2022
2:00 NE 24 gust 29 0.7 3.5 101.6 N/A 6
1:00 NNE 21 gust 27 0.6 3.5 101.6 N/A 6
0:00 N 16 gust 21 0.6 3.5 101.6 N/A 6
30 November 2022
23:00 NNE 19 gust 25 0.6 3.3 101.6 N/A 6
22:00 NNE 18 gust 26 0.7 3.6 101.6 N/A 6
21:00 NNE 21 gust 26 0.7 3.3 101.6 N/A 6
20:00 NNE 19 gust 28 0.7 3.6 101.6 N/A 6
19:00 NNE 20 gust 28 0.6 3.4 101.5 N/A 6
18:00 NNE 23 gust 30 0.6 3.2 101.6 N/A 6
17:00 NNE 23 gust 29 0.6 3.2 101.5 N/A 6
16:00 NNE 20 gust 29 0.6 3.1 101.5 N/A 6
15:00 NNE 20 gust 31 0.8 3.4 101.4 N/A 6
14:00 NNE 22 gust 29 0.8 3.5 101.4 N/A 6
13:00 N 26 gust 35 0.7 3.5 101.2 N/A 6
12:00 N 25 gust 37 0.8 3.7 101.1 N/A 6
11:00 N 25 gust 37 0.7 3.7 101.0 N/A 6
10:00 N 26 gust 36 0.7 3.3 100.9 N/A 6
9:00 N 26 gust 37 0.7 3.3 100.8 N/A 6
8:00 N 26 gust 37 0.6 2.8 100.7 N/A 6
7:00 NNE 26 gust 35 0.8 3.5 100.7 N/A 6
6:00 NNE 26 gust 40 0.7 3.3 100.6 N/A 6
5:00 NNE 28 gust 37 0.8 3.4 100.6 N/A 6
4:00 NNE 28 gust 37 0.9 3.6 100.5 N/A 6
3:00 N 28 gust 38 0.8 3.9 100.5 N/A 6
2:00 NNE 27 gust 37 0.8 3.6 100.4 N/A 6

Zoom-in to make a selection

Map of Pacific - North Coast marine weather areas Middle Nomad - 46004 South Nomad - 46036 Dixon Entrance Central - 46145 South Moresby - 46147 Nanakwa Shoal - 46181 North Hecate Strait - 46183 North Nomad - 46184 South Hecate Strait - 46185 West Sea Otter - 46204 West Dixon Entrance - 46205 East Dellwood - 46207 West Moresby - 46208 Sartine Island Cape St.James Kindakun Rocks Langara Island Masset Municipal Airport Rose Spit Sandspit Airport Bella Bella Airport Bella Coola Airport Bonilla Island Cathedral Point Cumshewa Island Grey Islet Holland Rock Lucy Islands Lightstation Prince Rupert Airport
Legend:
buoy Buoy
land station Land Station

Pacific - North Coast Area

Another Region

What we are doing

Date modified: